RYR297 LEIB-EDDK
Flight info
| Callsign | RYR297 |
|---|---|
| Flight time | 2h 4m |
| Altitude | 34000 |
| Route | KABRE DCT ELTAN DCT MHN DCT MEROS DCT LAPIT DCT CHELY DCT LUMAS DCT MAXIR DCT LUSOL DCT BODRU DCT OKTET DCT IRMAR DCT KINES DCT VANAS DCT MOBLO DCT UBIMA DCT GILIR DCT PENDU DCT IXILU DCT GIVOR/N0465F300 DCT SORAL DCT IBERA N853 DIK/N0466F290 N853 ARCKY T853 IBESA T860 ERUKI T856 DEPOK DEPOK2C |
| Aircraft | B738/M-SDE2E3FGHIRWXY/LB1 |
Departure
| Time | 2026-04-26 16:22 |
|---|---|
| Airport | Ibiza Airport (LEIB) |
Arrival
| Time | 2026-04-26 18:26 |
|---|---|
| Airport | Cologne Bonn Airport (EDDK) |
| Time | Latitude | Longitude | Altitude | Speed | Heading |
|---|---|---|---|---|---|
| 2026-04-26 15:46 | 38.87495 | 1.37092 | 7 ft | 0 kts | 332° |
| 2026-04-26 16:16 | 38.87506 | 1.37040 | 7 ft | 11 kts | 281° |
| 2026-04-26 16:16 | 38.87498 | 1.36948 | 8 ft | 11 kts | 245° |
| 2026-04-26 16:16 | 38.87480 | 1.36903 | 9 ft | 3 kts | 243° |
| 2026-04-26 16:16 | 38.87465 | 1.36865 | 7 ft | 8 kts | 243° |
| 2026-04-26 16:17 | 38.87419 | 1.36797 | 7 ft | 12 kts | 187° |
| 2026-04-26 16:17 | 38.87345 | 1.36835 | 7 ft | 11 kts | 155° |
| 2026-04-26 16:17 | 38.87275 | 1.36838 | 8 ft | 11 kts | 229° |
| 2026-04-26 16:17 | 38.87239 | 1.36752 | 9 ft | 11 kts | 242° |
| 2026-04-26 16:18 | 38.87205 | 1.36670 | 7 ft | 10 kts | 242° |
| 2026-04-26 16:18 | 38.87137 | 1.36505 | 7 ft | 11 kts | 242° |
| 2026-04-26 16:19 | 38.87059 | 1.36313 | 7 ft | 16 kts | 242° |
| 2026-04-26 16:19 | 38.87004 | 1.36179 | 7 ft | 17 kts | 242° |
| 2026-04-26 16:19 | 38.86916 | 1.35963 | 8 ft | 16 kts | 242° |
| 2026-04-26 16:20 | 38.86854 | 1.35827 | 7 ft | 8 kts | 218° |
| 2026-04-26 16:20 | 38.86722 | 1.35884 | 4 ft | 5 kts | 150° |
| 2026-04-26 16:20 | 38.86707 | 1.35913 | 5 ft | 4 kts | 93° |
| 2026-04-26 16:21 | 38.86721 | 1.35954 | 5 ft | 11 kts | 63° |
| 2026-04-26 16:21 | 38.86820 | 1.36195 | 4 ft | 60 kts | 61° |
| 2026-04-26 16:21 | 38.87122 | 1.36920 | 6 ft | 121 kts | 62° |
| 2026-04-26 16:21 | 38.87587 | 1.38075 | 96 ft | 162 kts | 64° |
| 2026-04-26 16:22 | 38.88078 | 1.39435 | 693 ft | 171 kts | 69° |
| 2026-04-26 16:22 | 38.88418 | 1.40886 | 1447 ft | 173 kts | 76° |
| 2026-04-26 16:22 | 38.88701 | 1.42400 | 2098 ft | 177 kts | 77° |
| 2026-04-26 16:22 | 38.89001 | 1.44043 | 2347 ft | 201 kts | 76° |
| 2026-04-26 16:23 | 38.89342 | 1.45828 | 2712 ft | 209 kts | 76° |
| 2026-04-26 16:23 | 38.89686 | 1.47734 | 2885 ft | 227 kts | 77° |
| 2026-04-26 16:23 | 38.90050 | 1.49779 | 3078 ft | 244 kts | 77° |
| 2026-04-26 16:23 | 38.90445 | 1.51968 | 3463 ft | 255 kts | 77° |
| 2026-04-26 16:24 | 38.90808 | 1.54203 | 4160 ft | 257 kts | 85° |
| 2026-04-26 16:24 | 38.90696 | 1.56459 | 4813 ft | 258 kts | 98° |
| 2026-04-26 16:24 | 38.90447 | 1.58771 | 5428 ft | 263 kts | 97° |
| 2026-04-26 16:24 | 38.90212 | 1.61121 | 6066 ft | 266 kts | 97° |
| 2026-04-26 16:25 | 38.89983 | 1.63493 | 6717 ft | 269 kts | 97° |
| 2026-04-26 16:25 | 38.89876 | 1.64613 | 7007 ft | 269 kts | 97° |
| 2026-04-26 16:25 | 38.89551 | 1.66812 | 7574 ft | 273 kts | 109° |
| 2026-04-26 16:25 | 38.88783 | 1.69012 | 8199 ft | 274 kts | 115° |
| 2026-04-26 16:26 | 38.87945 | 1.71230 | 8800 ft | 278 kts | 115° |
| 2026-04-26 16:26 | 38.87376 | 1.72740 | 9260 ft | 277 kts | 115° |
| 2026-04-26 16:26 | 38.86273 | 1.75707 | 10176 ft | 277 kts | 115° |
| 2026-04-26 16:26 | 38.85433 | 1.77989 | 10538 ft | 289 kts | 115° |
| 2026-04-26 16:27 | 38.84547 | 1.80411 | 10686 ft | 308 kts | 115° |
| 2026-04-26 16:27 | 38.83613 | 1.82978 | 10820 ft | 327 kts | 115° |
| 2026-04-26 16:27 | 38.82622 | 1.85701 | 10973 ft | 345 kts | 115° |
| 2026-04-26 16:27 | 38.81583 | 1.88557 | 11129 ft | 360 kts | 114° |
| 2026-04-26 16:28 | 38.80842 | 1.91673 | 11276 ft | 374 kts | 94° |
| 2026-04-26 16:28 | 38.81063 | 1.94976 | 11652 ft | 381 kts | 77° |
| 2026-04-26 16:28 | 38.81362 | 1.96268 | 11806 ft | 384 kts | 70° |
| 2026-04-26 16:28 | 38.82392 | 1.99446 | 12445 ft | 383 kts | 67° |
| 2026-04-26 16:29 | 38.83478 | 2.02589 | 12899 ft | 389 kts | 67° |
| 2026-04-26 16:29 | 38.84585 | 2.05761 | 13396 ft | 391 kts | 66° |
| 2026-04-26 16:29 | 38.85698 | 2.08975 | 13988 ft | 393 kts | 66° |
| 2026-04-26 16:29 | 38.86790 | 2.12163 | 14427 ft | 396 kts | 67° |
| 2026-04-26 16:30 | 38.87892 | 2.15415 | 14968 ft | 398 kts | 67° |
| 2026-04-26 16:30 | 38.88996 | 2.18698 | 15414 ft | 402 kts | 68° |
| 2026-04-26 16:30 | 38.90106 | 2.22014 | 15899 ft | 405 kts | 68° |
| 2026-04-26 16:30 | 38.91219 | 2.25351 | 16390 ft | 408 kts | 68° |
| 2026-04-26 16:31 | 38.92338 | 2.28713 | 16859 ft | 410 kts | 68° |
| 2026-04-26 16:31 | 38.93463 | 2.32096 | 17346 ft | 413 kts | 68° |
| 2026-04-26 16:31 | 38.94599 | 2.35517 | 17805 ft | 416 kts | 68° |
| 2026-04-26 16:31 | 38.95739 | 2.38955 | 18258 ft | 419 kts | 68° |
| 2026-04-26 16:32 | 38.96869 | 2.42366 | 18661 ft | 422 kts | 68° |
| 2026-04-26 16:32 | 38.97648 | 2.44720 | 18924 ft | 423 kts | 68° |
| 2026-04-26 16:32 | 38.99285 | 2.49293 | 19410 ft | 429 kts | 60° |
| 2026-04-26 16:32 | 39.01139 | 2.52322 | 19718 ft | 435 kts | 45° |
| 2026-04-26 16:33 | 39.03528 | 2.54739 | 20114 ft | 439 kts | 33° |
| 2026-04-26 16:33 | 39.06181 | 2.56712 | 20525 ft | 441 kts | 31° |
| 2026-04-26 16:33 | 39.08857 | 2.58670 | 20890 ft | 444 kts | 31° |
| 2026-04-26 16:33 | 39.11555 | 2.60651 | 21264 ft | 446 kts | 31° |
| 2026-04-26 16:34 | 39.14253 | 2.62645 | 21652 ft | 447 kts | 31° |
| 2026-04-26 16:34 | 39.16924 | 2.64635 | 21996 ft | 450 kts | 31° |
| 2026-04-26 16:34 | 39.19642 | 2.66673 | 22323 ft | 452 kts | 31° |
| 2026-04-26 16:34 | 39.22367 | 2.68724 | 22666 ft | 454 kts | 31° |
| 2026-04-26 16:35 | 39.25097 | 2.70786 | 23010 ft | 456 kts | 31° |
| 2026-04-26 16:35 | 39.27847 | 2.72866 | 23333 ft | 458 kts | 31° |
| 2026-04-26 16:35 | 39.30612 | 2.74959 | 23654 ft | 460 kts | 31° |
| 2026-04-26 16:35 | 39.33381 | 2.77058 | 23914 ft | 462 kts | 31° |
| 2026-04-26 16:36 | 39.36165 | 2.79169 | 24195 ft | 463 kts | 31° |
| 2026-04-26 16:36 | 39.38914 | 2.81256 | 24476 ft | 465 kts | 31° |
| 2026-04-26 16:36 | 39.41712 | 2.83381 | 24731 ft | 467 kts | 31° |
| 2026-04-26 16:36 | 39.44522 | 2.85517 | 24986 ft | 469 kts | 31° |
| 2026-04-26 16:37 | 39.46385 | 2.86935 | 25151 ft | 470 kts | 31° |
| 2026-04-26 16:37 | 39.48449 | 2.88506 | 25341 ft | 471 kts | 31° |
| 2026-04-26 16:37 | 39.51282 | 2.90665 | 25588 ft | 472 kts | 31° |
| 2026-04-26 16:37 | 39.53159 | 2.92097 | 25750 ft | 473 kts | 31° |
| 2026-04-26 16:38 | 39.56935 | 2.94979 | 26098 ft | 475 kts | 32° |
| 2026-04-26 16:38 | 39.59782 | 2.97155 | 26372 ft | 475 kts | 31° |
| 2026-04-26 16:38 | 39.62638 | 2.99340 | 26655 ft | 476 kts | 32° |
| 2026-04-26 16:38 | 39.65489 | 3.01521 | 26991 ft | 475 kts | 31° |
| 2026-04-26 16:39 | 39.68347 | 3.03708 | 27325 ft | 474 kts | 31° |
| 2026-04-26 16:39 | 39.71185 | 3.05885 | 27653 ft | 474 kts | 31° |
| 2026-04-26 16:39 | 39.73997 | 3.08046 | 27874 ft | 475 kts | 31° |
| 2026-04-26 16:39 | 39.76850 | 3.10239 | 28150 ft | 476 kts | 31° |
| 2026-04-26 16:40 | 39.79691 | 3.12426 | 28573 ft | 473 kts | 31° |
| 2026-04-26 16:40 | 39.82522 | 3.14607 | 28963 ft | 471 kts | 31° |
| 2026-04-26 16:40 | 39.85347 | 3.16785 | 29275 ft | 472 kts | 31° |
| 2026-04-26 16:40 | 39.88173 | 3.18965 | 29562 ft | 472 kts | 31° |
| 2026-04-26 16:41 | 39.91002 | 3.21151 | 29888 ft | 472 kts | 31° |
| 2026-04-26 16:41 | 39.93790 | 3.23306 | 30237 ft | 470 kts | 31° |
| 2026-04-26 16:41 | 39.96603 | 3.25483 | 30514 ft | 470 kts | 31° |
| 2026-04-26 16:41 | 39.99419 | 3.27665 | 30787 ft | 469 kts | 31° |
| 2026-04-26 16:42 | 40.02227 | 3.29842 | 31121 ft | 467 kts | 31° |
| 2026-04-26 16:42 | 40.05013 | 3.32004 | 31400 ft | 466 kts | 31° |
| 2026-04-26 16:42 | 40.07806 | 3.34174 | 31608 ft | 467 kts | 31° |
| 2026-04-26 16:42 | 40.10605 | 3.36350 | 31831 ft | 467 kts | 31° |
| 2026-04-26 16:43 | 40.13364 | 3.38498 | 32091 ft | 466 kts | 31° |
| 2026-04-26 16:43 | 40.16152 | 3.40670 | 32357 ft | 466 kts | 31° |
| 2026-04-26 16:43 | 40.18936 | 3.42841 | 32602 ft | 465 kts | 31° |
| 2026-04-26 16:43 | 40.21721 | 3.45015 | 32839 ft | 465 kts | 31° |
| 2026-04-26 16:44 | 40.24494 | 3.47182 | 33124 ft | 464 kts | 31° |
| 2026-04-26 16:44 | 40.27268 | 3.49351 | 33392 ft | 463 kts | 31° |
| 2026-04-26 16:44 | 40.29101 | 3.50786 | 33543 ft | 463 kts | 31° |
| 2026-04-26 16:44 | 40.32762 | 3.53654 | 33838 ft | 462 kts | 31° |
| 2026-04-26 16:45 | 40.35525 | 3.55822 | 34076 ft | 462 kts | 31° |
| 2026-04-26 16:45 | 40.38289 | 3.57992 | 34120 ft | 463 kts | 31° |
| 2026-04-26 16:45 | 40.42891 | 3.61610 | 34132 ft | 463 kts | 31° |
| 2026-04-26 16:46 | 40.48417 | 3.65962 | 34134 ft | 461 kts | 31° |
| 2026-04-26 16:46 | 40.53877 | 3.70270 | 34133 ft | 460 kts | 31° |
| 2026-04-26 16:47 | 40.59367 | 3.74610 | 34134 ft | 459 kts | 31° |
| 2026-04-26 16:47 | 40.64857 | 3.78959 | 34132 ft | 459 kts | 31° |
| 2026-04-26 16:48 | 40.70333 | 3.83306 | 34128 ft | 459 kts | 30° |
| 2026-04-26 16:48 | 40.74904 | 3.86940 | 34142 ft | 464 kts | 30° |
| 2026-04-26 16:49 | 40.78715 | 3.89974 | 34137 ft | 468 kts | 30° |
| 2026-04-26 16:49 | 40.83638 | 3.93900 | 34140 ft | 471 kts | 30° |
| 2026-04-26 16:50 | 40.89231 | 3.98369 | 34131 ft | 472 kts | 30° |
| 2026-04-26 16:50 | 40.94859 | 4.02875 | 34133 ft | 473 kts | 30° |
| 2026-04-26 16:51 | 41.00489 | 4.07392 | 34130 ft | 473 kts | 30° |
| 2026-04-26 16:51 | 41.06120 | 4.11919 | 34134 ft | 473 kts | 30° |
| 2026-04-26 16:52 | 41.10798 | 4.15687 | 34130 ft | 473 kts | 30° |
| 2026-04-26 16:52 | 41.17348 | 4.20972 | 34131 ft | 473 kts | 30° |
| 2026-04-26 16:53 | 41.22982 | 4.25528 | 34131 ft | 473 kts | 30° |
| 2026-04-26 16:53 | 41.28609 | 4.30089 | 34129 ft | 473 kts | 30° |
| 2026-04-26 16:54 | 41.34202 | 4.34631 | 34130 ft | 473 kts | 30° |
| 2026-04-26 16:54 | 41.39829 | 4.39210 | 34127 ft | 473 kts | 30° |
| 2026-04-26 16:55 | 41.45438 | 4.43784 | 34127 ft | 473 kts | 30° |
| 2026-04-26 16:55 | 41.51062 | 4.48379 | 34122 ft | 474 kts | 30° |
| 2026-04-26 16:56 | 41.59520 | 4.55309 | 34126 ft | 475 kts | 30° |
| 2026-04-26 16:57 | 41.65119 | 4.59909 | 34124 ft | 475 kts | 30° |
| 2026-04-26 16:57 | 41.73583 | 4.66878 | 34116 ft | 476 kts | 29° |
| 2026-04-26 16:58 | 41.78299 | 4.70698 | 34118 ft | 476 kts | 28° |
| 2026-04-26 16:59 | 41.87782 | 4.78283 | 34117 ft | 476 kts | 28° |
| 2026-04-26 17:00 | 41.99129 | 4.87428 | 34114 ft | 477 kts | 28° |
| 2026-04-26 17:00 | 42.07674 | 4.94351 | 34119 ft | 477 kts | 28° |
| 2026-04-26 17:01 | 42.13330 | 4.98943 | 34118 ft | 478 kts | 28° |
| 2026-04-26 17:01 | 42.19033 | 5.03585 | 34114 ft | 479 kts | 28° |
| 2026-04-26 17:02 | 42.24740 | 5.08239 | 34121 ft | 479 kts | 28° |
| 2026-04-26 17:02 | 42.30422 | 5.12883 | 34133 ft | 479 kts | 28° |
| 2026-04-26 17:03 | 42.36132 | 5.17561 | 34113 ft | 480 kts | 28° |
| 2026-04-26 17:03 | 42.41843 | 5.22248 | 34108 ft | 480 kts | 28° |
| 2026-04-26 17:04 | 42.47577 | 5.26965 | 34113 ft | 480 kts | 28° |
| 2026-04-26 17:04 | 42.53258 | 5.31648 | 34119 ft | 481 kts | 28° |
| 2026-04-26 17:05 | 42.58987 | 5.36381 | 34113 ft | 482 kts | 28° |
| 2026-04-26 17:05 | 42.64730 | 5.41136 | 34116 ft | 482 kts | 28° |
| 2026-04-26 17:06 | 42.70430 | 5.45866 | 34113 ft | 482 kts | 28° |
| 2026-04-26 17:06 | 42.76163 | 5.50634 | 34114 ft | 483 kts | 28° |
| 2026-04-26 17:07 | 42.81891 | 5.55408 | 34116 ft | 483 kts | 28° |
| 2026-04-26 17:07 | 42.86657 | 5.59388 | 34114 ft | 483 kts | 28° |
| 2026-04-26 17:08 | 42.91557 | 5.63487 | 34126 ft | 483 kts | 28° |
| 2026-04-26 17:08 | 42.97286 | 5.68290 | 34121 ft | 483 kts | 28° |
| 2026-04-26 17:09 | 43.02052 | 5.72294 | 34113 ft | 483 kts | 28° |
| 2026-04-26 17:09 | 43.08752 | 5.77935 | 34132 ft | 483 kts | 29° |
| 2026-04-26 17:10 | 43.14450 | 5.82744 | 34128 ft | 484 kts | 29° |
| 2026-04-26 17:10 | 43.20191 | 5.87601 | 34125 ft | 484 kts | 29° |
| 2026-04-26 17:11 | 43.25917 | 5.92456 | 34113 ft | 484 kts | 29° |
| 2026-04-26 17:11 | 43.31643 | 5.97322 | 34132 ft | 483 kts | 29° |
| 2026-04-26 17:12 | 43.40501 | 6.03617 | 34131 ft | 477 kts | 13° |
| 2026-04-26 17:13 | 43.47004 | 6.04999 | 34135 ft | 470 kts | 0° |
| 2026-04-26 17:13 | 43.50239 | 6.05264 | 34128 ft | 471 kts | 0° |
| 2026-04-26 17:14 | 43.60091 | 6.06121 | 34125 ft | 472 kts | 1° |
| 2026-04-26 17:14 | 43.69905 | 6.07114 | 34128 ft | 472 kts | 1° |
| 2026-04-26 17:15 | 43.79591 | 6.09388 | 34131 ft | 478 kts | 20° |
| 2026-04-26 17:16 | 43.85596 | 6.13407 | 34129 ft | 480 kts | 25° |
| 2026-04-26 17:16 | 43.91569 | 6.17620 | 34130 ft | 481 kts | 25° |
| 2026-04-26 17:17 | 43.97531 | 6.21748 | 34129 ft | 480 kts | 24° |
| 2026-04-26 17:17 | 44.03522 | 6.25851 | 34131 ft | 481 kts | 24° |
| 2026-04-26 17:18 | 44.09533 | 6.29972 | 34142 ft | 480 kts | 25° |
| 2026-04-26 17:18 | 44.15542 | 6.34106 | 34132 ft | 481 kts | 25° |
| 2026-04-26 17:19 | 44.24490 | 6.40280 | 34145 ft | 480 kts | 25° |
| 2026-04-26 17:19 | 44.30494 | 6.44431 | 34146 ft | 480 kts | 25° |
| 2026-04-26 17:20 | 44.34471 | 6.47186 | 34135 ft | 481 kts | 24° |
| 2026-04-26 17:20 | 44.42460 | 6.52736 | 34133 ft | 481 kts | 24° |
| 2026-04-26 17:21 | 44.48469 | 6.56920 | 34152 ft | 482 kts | 25° |
| 2026-04-26 17:21 | 44.54291 | 6.60984 | 34147 ft | 483 kts | 25° |
| 2026-04-26 17:22 | 44.60328 | 6.65209 | 34147 ft | 484 kts | 25° |
| 2026-04-26 17:22 | 44.66363 | 6.69442 | 34162 ft | 484 kts | 25° |
| 2026-04-26 17:23 | 44.72365 | 6.73661 | 34157 ft | 485 kts | 25° |
| 2026-04-26 17:23 | 44.78514 | 6.77519 | 34148 ft | 482 kts | 13° |
| 2026-04-26 17:24 | 44.85104 | 6.78884 | 34147 ft | 476 kts | 356° |
| 2026-04-26 17:24 | 44.91653 | 6.78415 | 34149 ft | 474 kts | 354° |
| 2026-04-26 17:25 | 44.98243 | 6.77875 | 34155 ft | 473 kts | 354° |
| 2026-04-26 17:25 | 45.04814 | 6.77408 | 34157 ft | 471 kts | 355° |
| 2026-04-26 17:26 | 45.11370 | 6.76975 | 34169 ft | 471 kts | 355° |
| 2026-04-26 17:26 | 45.17873 | 6.76547 | 34153 ft | 470 kts | 355° |
| 2026-04-26 17:27 | 45.24399 | 6.76113 | 34154 ft | 468 kts | 355° |
| 2026-04-26 17:27 | 45.30897 | 6.75679 | 34159 ft | 465 kts | 355° |
| 2026-04-26 17:28 | 45.37314 | 6.75249 | 34166 ft | 463 kts | 355° |
| 2026-04-26 17:28 | 45.43749 | 6.74818 | 34177 ft | 462 kts | 355° |
| 2026-04-26 17:29 | 45.49097 | 6.74458 | 34164 ft | 461 kts | 355° |
| 2026-04-26 17:29 | 45.56547 | 6.73948 | 34178 ft | 461 kts | 355° |
| 2026-04-26 17:30 | 45.62951 | 6.73510 | 34182 ft | 458 kts | 355° |
| 2026-04-26 17:30 | 45.69322 | 6.73070 | 34165 ft | 457 kts | 355° |
| 2026-04-26 17:31 | 45.75657 | 6.72633 | 34161 ft | 457 kts | 355° |
| 2026-04-26 17:31 | 45.82019 | 6.72195 | 34157 ft | 457 kts | 355° |
| 2026-04-26 17:32 | 45.88362 | 6.71765 | 34157 ft | 455 kts | 355° |
| 2026-04-26 17:32 | 45.94641 | 6.71339 | 34147 ft | 454 kts | 356° |
| 2026-04-26 17:33 | 46.00956 | 6.70910 | 34159 ft | 452 kts | 356° |
| 2026-04-26 17:34 | 46.10335 | 6.70265 | 34149 ft | 450 kts | 355° |
| 2026-04-26 17:34 | 46.16432 | 6.68457 | 34153 ft | 447 kts | 341° |
| 2026-04-26 17:35 | 46.22280 | 6.65539 | 34140 ft | 446 kts | 340° |
| 2026-04-26 17:35 | 46.28153 | 6.62605 | 34143 ft | 445 kts | 340° |
| 2026-04-26 17:36 | 46.34022 | 6.59717 | 34132 ft | 445 kts | 341° |
| 2026-04-26 17:36 | 46.39888 | 6.56849 | 34154 ft | 444 kts | 341° |
| 2026-04-26 17:37 | 46.43905 | 6.54884 | 34140 ft | 444 kts | 341° |
| 2026-04-26 17:37 | 46.49760 | 6.52013 | 34143 ft | 443 kts | 341° |
| 2026-04-26 17:38 | 46.56691 | 6.48606 | 34147 ft | 442 kts | 341° |
| 2026-04-26 17:38 | 46.62524 | 6.45729 | 34155 ft | 441 kts | 341° |
| 2026-04-26 17:39 | 46.68335 | 6.42858 | 34148 ft | 440 kts | 341° |
| 2026-04-26 17:39 | 46.74099 | 6.40003 | 34147 ft | 439 kts | 341° |
| 2026-04-26 17:40 | 46.76187 | 6.38968 | 34150 ft | 439 kts | 341° |
| 2026-04-26 17:40 | 46.83857 | 6.35156 | 34162 ft | 438 kts | 341° |
| 2026-04-26 17:41 | 46.89626 | 6.32281 | 34169 ft | 437 kts | 341° |
| 2026-04-26 17:41 | 46.95396 | 6.29399 | 34166 ft | 437 kts | 341° |
| 2026-04-26 17:42 | 47.00179 | 6.27005 | 34165 ft | 437 kts | 341° |
| 2026-04-26 17:42 | 47.06991 | 6.24341 | 34161 ft | 436 kts | 353° |
| 2026-04-26 17:43 | 47.12041 | 6.24286 | 34176 ft | 437 kts | 2° |
| 2026-04-26 17:43 | 47.19108 | 6.25021 | 34163 ft | 437 kts | 2° |
| 2026-04-26 17:44 | 47.24198 | 6.25552 | 34174 ft | 437 kts | 2° |
| 2026-04-26 17:44 | 47.30241 | 6.26146 | 34162 ft | 437 kts | 2° |
| 2026-04-26 17:45 | 47.36310 | 6.26721 | 34165 ft | 436 kts | 2° |
| 2026-04-26 17:45 | 47.42332 | 6.27287 | 34174 ft | 436 kts | 2° |
| 2026-04-26 17:46 | 47.48406 | 6.27859 | 34166 ft | 436 kts | 2° |
| 2026-04-26 17:46 | 47.54428 | 6.28429 | 34165 ft | 435 kts | 2° |
| 2026-04-26 17:47 | 47.59500 | 6.28910 | 34167 ft | 435 kts | 2° |
| 2026-04-26 17:47 | 47.66533 | 6.29579 | 34178 ft | 435 kts | 2° |
| 2026-04-26 17:48 | 47.72580 | 6.30155 | 34173 ft | 435 kts | 1° |
| 2026-04-26 17:48 | 47.78585 | 6.30729 | 34176 ft | 434 kts | 2° |
| 2026-04-26 17:49 | 47.84623 | 6.31307 | 34185 ft | 434 kts | 1° |
| 2026-04-26 17:49 | 47.90661 | 6.31887 | 34175 ft | 434 kts | 1° |
| 2026-04-26 17:50 | 47.96703 | 6.32468 | 34181 ft | 434 kts | 1° |
| 2026-04-26 17:50 | 48.02695 | 6.33046 | 34191 ft | 434 kts | 1° |
| 2026-04-26 17:51 | 48.08733 | 6.33629 | 34179 ft | 434 kts | 1° |
| 2026-04-26 17:51 | 48.14776 | 6.34214 | 34191 ft | 434 kts | 1° |
| 2026-04-26 17:52 | 48.20810 | 6.34801 | 34183 ft | 434 kts | 1° |
| 2026-04-26 17:52 | 48.26813 | 6.35385 | 34201 ft | 434 kts | 1° |
| 2026-04-26 17:53 | 48.32852 | 6.35974 | 34187 ft | 435 kts | 1° |
| 2026-04-26 17:54 | 48.41919 | 6.36861 | 34194 ft | 435 kts | 1° |
| 2026-04-26 17:54 | 48.47929 | 6.37451 | 34198 ft | 435 kts | 1° |
| 2026-04-26 17:55 | 48.53977 | 6.38046 | 34190 ft | 435 kts | 1° |
| 2026-04-26 17:55 | 48.60024 | 6.38643 | 34190 ft | 435 kts | 1° |
| 2026-04-26 17:56 | 48.66026 | 6.39235 | 34184 ft | 434 kts | 1° |
| 2026-04-26 17:57 | 48.78099 | 6.40433 | 34192 ft | 436 kts | 1° |
| 2026-04-26 17:57 | 48.84153 | 6.41036 | 34212 ft | 437 kts | 1° |
| 2026-04-26 17:58 | 48.96276 | 6.42248 | 34213 ft | 437 kts | 1° |
| 2026-04-26 17:59 | 49.05366 | 6.43161 | 34215 ft | 437 kts | 1° |
| 2026-04-26 17:59 | 49.11429 | 6.43402 | 34211 ft | 434 kts | 353° |
| 2026-04-26 18:00 | 49.17306 | 6.41485 | 34226 ft | 431 kts | 343° |
| 2026-04-26 18:00 | 49.23092 | 6.39017 | 34223 ft | 431 kts | 343° |
| 2026-04-26 18:01 | 49.28886 | 6.36586 | 34222 ft | 431 kts | 343° |
| 2026-04-26 18:01 | 49.34684 | 6.34189 | 34214 ft | 431 kts | 343° |
| 2026-04-26 18:02 | 49.39507 | 6.32198 | 34223 ft | 431 kts | 343° |
| 2026-04-26 18:02 | 49.46225 | 6.29416 | 34204 ft | 427 kts | 343° |
| 2026-04-26 18:03 | 49.51954 | 6.27039 | 33548 ft | 428 kts | 343° |
| 2026-04-26 18:03 | 49.54813 | 6.25865 | 32988 ft | 424 kts | 343° |
| 2026-04-26 18:03 | 49.57677 | 6.24695 | 32327 ft | 424 kts | 343° |
| 2026-04-26 18:04 | 49.60540 | 6.23524 | 31607 ft | 426 kts | 343° |
| 2026-04-26 18:04 | 49.63420 | 6.22345 | 30888 ft | 428 kts | 343° |
| 2026-04-26 18:04 | 49.66270 | 6.21175 | 30131 ft | 430 kts | 343° |
| 2026-04-26 18:05 | 49.72086 | 6.18782 | 28412 ft | 433 kts | 343° |
| 2026-04-26 18:05 | 49.75010 | 6.17576 | 27557 ft | 435 kts | 343° |
| 2026-04-26 18:05 | 49.77939 | 6.16366 | 26668 ft | 437 kts | 343° |
| 2026-04-26 18:05 | 49.80887 | 6.15148 | 25905 ft | 438 kts | 343° |
| 2026-04-26 18:06 | 49.83823 | 6.13935 | 25285 ft | 435 kts | 344° |
| 2026-04-26 18:06 | 49.86784 | 6.13017 | 24617 ft | 434 kts | 351° |
| 2026-04-26 18:06 | 49.89828 | 6.12820 | 23786 ft | 439 kts | 359° |
| 2026-04-26 18:06 | 49.92883 | 6.12892 | 22971 ft | 438 kts | 359° |
| 2026-04-26 18:07 | 49.95881 | 6.12965 | 22317 ft | 434 kts | 359° |
| 2026-04-26 18:07 | 49.98888 | 6.13021 | 21688 ft | 429 kts | 359° |
| 2026-04-26 18:07 | 50.01863 | 6.13059 | 21051 ft | 425 kts | 358° |
| 2026-04-26 18:07 | 50.03825 | 6.13076 | 20643 ft | 423 kts | 358° |
| 2026-04-26 18:08 | 50.07749 | 6.13101 | 19819 ft | 418 kts | 358° |
| 2026-04-26 18:08 | 50.10650 | 6.13116 | 19209 ft | 415 kts | 358° |
| 2026-04-26 18:08 | 50.13536 | 6.13131 | 18619 ft | 412 kts | 358° |
| 2026-04-26 18:08 | 50.16401 | 6.13146 | 17942 ft | 410 kts | 359° |
| 2026-04-26 18:09 | 50.19205 | 6.13162 | 17309 ft | 406 kts | 359° |
| 2026-04-26 18:09 | 50.22024 | 6.13177 | 16662 ft | 405 kts | 359° |
| 2026-04-26 18:09 | 50.24829 | 6.13194 | 16098 ft | 400 kts | 359° |
| 2026-04-26 18:09 | 50.27604 | 6.13371 | 15493 ft | 398 kts | 6° |
| 2026-04-26 18:10 | 50.30303 | 6.14381 | 14919 ft | 397 kts | 17° |
| 2026-04-26 18:10 | 50.32834 | 6.16103 | 14369 ft | 396 kts | 27° |
| 2026-04-26 18:10 | 50.35124 | 6.18400 | 13786 ft | 394 kts | 32° |
| 2026-04-26 18:10 | 50.37392 | 6.20801 | 13234 ft | 391 kts | 32° |
| 2026-04-26 18:11 | 50.39631 | 6.23162 | 12849 ft | 385 kts | 32° |
| 2026-04-26 18:11 | 50.41855 | 6.25475 | 12457 ft | 382 kts | 32° |
| 2026-04-26 18:11 | 50.44082 | 6.27773 | 12079 ft | 385 kts | 31° |
| 2026-04-26 18:11 | 50.46335 | 6.30096 | 11713 ft | 387 kts | 32° |
| 2026-04-26 18:12 | 50.48432 | 6.32765 | 11325 ft | 387 kts | 44° |
| 2026-04-26 18:12 | 50.50074 | 6.36038 | 10947 ft | 375 kts | 56° |
| 2026-04-26 18:12 | 50.51220 | 6.39567 | 10578 ft | 361 kts | 65° |
| 2026-04-26 18:12 | 50.52155 | 6.43148 | 10221 ft | 347 kts | 65° |
| 2026-04-26 18:13 | 50.53064 | 6.46588 | 9829 ft | 335 kts | 65° |
| 2026-04-26 18:13 | 50.53959 | 6.49913 | 9471 ft | 323 kts | 65° |
| 2026-04-26 18:13 | 50.54815 | 6.53065 | 9195 ft | 310 kts | 64° |
| 2026-04-26 18:13 | 50.55350 | 6.55140 | 9237 ft | 297 kts | 70° |
| 2026-04-26 18:14 | 50.55788 | 6.59351 | 9260 ft | 294 kts | 82° |
| 2026-04-26 18:14 | 50.55972 | 6.62552 | 9253 ft | 294 kts | 83° |
| 2026-04-26 18:14 | 50.56144 | 6.65744 | 9258 ft | 294 kts | 83° |
| 2026-04-26 18:14 | 50.56313 | 6.68961 | 9267 ft | 295 kts | 83° |
| 2026-04-26 18:15 | 50.56477 | 6.72140 | 9259 ft | 295 kts | 83° |
| 2026-04-26 18:15 | 50.56645 | 6.75358 | 9270 ft | 295 kts | 83° |
| 2026-04-26 18:15 | 50.56810 | 6.78580 | 9265 ft | 295 kts | 83° |
| 2026-04-26 18:15 | 50.56975 | 6.81800 | 9260 ft | 295 kts | 83° |
| 2026-04-26 18:16 | 50.57139 | 6.85031 | 9267 ft | 295 kts | 83° |
| 2026-04-26 18:16 | 50.57803 | 6.91324 | 9181 ft | 294 kts | 73° |
| 2026-04-26 18:16 | 50.58297 | 6.94460 | 8963 ft | 294 kts | 73° |
| 2026-04-26 18:17 | 50.58792 | 6.97564 | 8747 ft | 290 kts | 73° |
| 2026-04-26 18:17 | 50.59282 | 7.00619 | 8505 ft | 287 kts | 73° |
| 2026-04-26 18:17 | 50.59768 | 7.03662 | 8192 ft | 286 kts | 73° |
| 2026-04-26 18:17 | 50.60249 | 7.06672 | 7868 ft | 287 kts | 73° |
| 2026-04-26 18:18 | 50.60738 | 7.09721 | 7549 ft | 287 kts | 73° |
| 2026-04-26 18:18 | 50.61229 | 7.12768 | 7232 ft | 287 kts | 73° |
| 2026-04-26 18:18 | 50.61722 | 7.15806 | 6908 ft | 283 kts | 73° |
| 2026-04-26 18:18 | 50.62209 | 7.18798 | 6574 ft | 280 kts | 73° |
| 2026-04-26 18:19 | 50.62691 | 7.21752 | 6240 ft | 276 kts | 73° |
| 2026-04-26 18:19 | 50.63166 | 7.24633 | 5860 ft | 274 kts | 73° |
| 2026-04-26 18:19 | 50.63648 | 7.27520 | 5480 ft | 270 kts | 73° |
| 2026-04-26 18:19 | 50.64130 | 7.30372 | 5095 ft | 267 kts | 73° |
| 2026-04-26 18:20 | 50.64611 | 7.33174 | 4698 ft | 264 kts | 73° |
| 2026-04-26 18:20 | 50.65096 | 7.35955 | 4326 ft | 261 kts | 73° |
| 2026-04-26 18:20 | 50.65844 | 7.38514 | 3911 ft | 257 kts | 47° |
| 2026-04-26 18:20 | 50.66260 | 7.39149 | 3787 ft | 255 kts | 36° |
| 2026-04-26 18:21 | 50.68965 | 7.39721 | 3313 ft | 237 kts | 335° |
| 2026-04-26 18:21 | 50.70316 | 7.38352 | 3080 ft | 224 kts | 325° |
| 2026-04-26 18:21 | 50.71507 | 7.36902 | 3003 ft | 209 kts | 320° |
| 2026-04-26 18:21 | 50.72598 | 7.35387 | 3020 ft | 208 kts | 318° |
| 2026-04-26 18:22 | 50.73661 | 7.33847 | 3008 ft | 208 kts | 318° |
| 2026-04-26 18:22 | 50.74726 | 7.32294 | 3008 ft | 208 kts | 318° |
| 2026-04-26 18:22 | 50.75787 | 7.30744 | 2949 ft | 208 kts | 318° |
| 2026-04-26 18:22 | 50.76830 | 7.29223 | 2707 ft | 198 kts | 318° |
| 2026-04-26 18:23 | 50.77793 | 7.27820 | 2481 ft | 181 kts | 319° |
| 2026-04-26 18:23 | 50.78680 | 7.26528 | 2219 ft | 166 kts | 320° |
| 2026-04-26 18:23 | 50.79497 | 7.25340 | 2019 ft | 155 kts | 320° |
| 2026-04-26 18:23 | 50.80281 | 7.24200 | 1785 ft | 151 kts | 320° |
| 2026-04-26 18:24 | 50.81057 | 7.23069 | 1610 ft | 153 kts | 320° |
| 2026-04-26 18:24 | 50.81826 | 7.21915 | 1444 ft | 152 kts | 318° |
| 2026-04-26 18:24 | 50.82601 | 7.20765 | 1183 ft | 154 kts | 319° |
| 2026-04-26 18:24 | 50.83373 | 7.19699 | 959 ft | 144 kts | 319° |
| 2026-04-26 18:25 | 50.84102 | 7.18616 | 779 ft | 143 kts | 318° |
| 2026-04-26 18:25 | 50.84841 | 7.17566 | 555 ft | 141 kts | 317° |
| 2026-04-26 18:25 | 50.85558 | 7.16517 | 357 ft | 140 kts | 317° |
| 2026-04-26 18:25 | 50.86246 | 7.15521 | 291 ft | 122 kts | 317° |
| 2026-04-26 18:26 | 50.86719 | 7.14837 | 269 ft | 63 kts | 317° |
| 2026-04-26 18:26 | 50.86987 | 7.14447 | 255 ft | 50 kts | 317° |
| 2026-04-26 18:26 | 50.87220 | 7.14098 | 245 ft | 35 kts | 308° |
| 2026-04-26 18:26 | 50.87303 | 7.13857 | 240 ft | 15 kts | 285° |
| 2026-04-26 18:27 | 50.87319 | 7.13720 | 237 ft | 11 kts | 279° |
| 2026-04-26 18:27 | 50.87324 | 7.13667 | 241 ft | 0 kts | 279° |
| 2026-04-26 18:28 | 50.87325 | 7.13660 | 240 ft | 2 kts | 279° |
| 2026-04-26 18:29 | 50.87332 | 7.13592 | 236 ft | 11 kts | 279° |
| 2026-04-26 18:29 | 50.87346 | 7.13496 | 234 ft | 16 kts | 292° |
| 2026-04-26 18:29 | 50.87466 | 7.13293 | 232 ft | 20 kts | 318° |
| 2026-04-26 18:29 | 50.87536 | 7.13194 | 232 ft | 20 kts | 319° |
| 2026-04-26 18:30 | 50.87636 | 7.13050 | 232 ft | 19 kts | 317° |
| 2026-04-26 18:30 | 50.87732 | 7.12909 | 232 ft | 19 kts | 317° |
| 2026-04-26 18:30 | 50.87790 | 7.12785 | 234 ft | 12 kts | 269° |
| 2026-04-26 18:30 | 50.87801 | 7.12660 | 232 ft | 12 kts | 306° |
| 2026-04-26 18:31 | 50.87873 | 7.12612 | 231 ft | 11 kts | 4° |
| 2026-04-26 18:31 | 50.87951 | 7.12619 | 231 ft | 11 kts | 348° |
| 2026-04-26 18:31 | 50.88010 | 7.12547 | 231 ft | 11 kts | 302° |
| 2026-04-26 18:31 | 50.88048 | 7.12445 | 231 ft | 11 kts | 300° |
| 2026-04-26 18:32 | 50.88087 | 7.12349 | 232 ft | 10 kts | 306° |
| 2026-04-26 18:32 | 50.88128 | 7.12260 | 231 ft | 5 kts | 306° |
| 2026-04-26 18:32 | 50.88132 | 7.12252 | 231 ft | 4 kts | 306° |
| 2026-04-26 18:32 | 50.88130 | 7.12199 | 231 ft | 6 kts | 229° |
| 2026-04-26 18:33 | 50.88100 | 7.12162 | 232 ft | 3 kts | 216° |
| 2026-04-26 18:33 | 50.88087 | 7.12147 | 231 ft | 2 kts | 216° |
| 2026-04-26 18:33 | 50.88082 | 7.12141 | 231 ft | 0 kts | 216° |